Time;durP1;ratioP1;P1;durP2;ratioP2;P2;SDS_P1;SDS_P2;PMS_P1;PMS_P2;Temp;Humidity;BMP_temperature;BMP_pressure;BME280_temperature;BME280_humidity;BME280_pressure;Samples;Min_cycle;Max_cycle;Signal;HPM_P1;HPM_P2
2022/09/13 00:00:52;;;;;;;20.65;15.13;;;18.10;99.90;;;;;;5024740;28;20128;-65
2022/09/13 00:03:19;;;;;;;19.80;13.15;;;18.00;99.90;;;;;;5048811;28;20032;-65
2022/09/13 00:05:44;;;;;;;20.27;13.88;;;17.90;99.90;;;;;;5050095;28;20132;-66
2022/09/13 00:08:11;;;;;;;17.88;14.05;;;17.80;99.90;;;;;;5038601;28;20120;-66
2022/09/13 00:10:38;;;;;;;18.40;13.80;;;17.80;99.90;;;;;;5032923;28;20044;-65
2022/09/13 00:13:05;;;;;;;18.65;13.32;;;17.70;99.90;;;;;;5049551;28;20064;-64
2022/09/13 00:15:31;;;;;;;20.08;13.93;;;17.70;99.90;;;;;;5039949;28;20395;-66
2022/09/13 00:17:56;;;;;;;20.10;13.90;;;17.60;99.90;;;;;;5044403;28;20040;-66
2022/09/13 00:20:22;;;;;;;23.63;14.77;;;17.60;99.90;;;;;;5049714;28;20727;-65
2022/09/13 00:22:48;;;;;;;22.55;14.75;;;17.60;99.90;;;;;;5049704;28;20406;-63
2022/09/13 00:25:14;;;;;;;22.10;15.52;;;17.50;99.90;;;;;;5039673;28;20029;-66
2022/09/13 00:27:39;;;;;;;33.33;15.45;;;17.50;99.90;;;;;;5032667;28;20577;-66
2022/09/13 00:30:06;;;;;;;20.40;14.90;;;17.50;99.90;;;;;;5049802;28;20033;-66
2022/09/13 00:32:35;;;;;;;22.98;15.63;;;17.50;99.90;;;;;;5031763;28;20038;-66
2022/09/13 00:35:02;;;;;;;20.33;14.48;;;17.50;99.90;;;;;;5040337;28;20072;-65
2022/09/13 00:37:28;;;;;;;18.33;14.57;;;17.50;99.90;;;;;;5053076;28;20561;-64
2022/09/13 00:39:54;;;;;;;18.90;14.13;;;17.50;99.90;;;;;;5053800;28;20073;-66
2022/09/13 00:42:26;;;;;;;20.80;14.05;;;17.50;99.90;;;;;;5034904;28;20695;-66
2022/09/13 00:44:57;;;;;;;21.02;14.38;;;17.50;99.90;;;;;;5044809;28;20044;-66
2022/09/13 00:47:35;;;;;;;24.67;15.25;;;17.50;99.90;;;;;;5053022;28;20048;-64
2022/09/13 00:50:19;;;;;;;19.48;15.15;;;17.50;99.90;;;;;;5030570;28;20033;-66
2022/09/13 00:53:00;;;;;;;24.25;15.45;;;17.50;99.90;;;;;;5042053;28;20033;-65
2022/09/13 00:55:31;;;;;;;25.10;15.15;;;17.50;99.90;;;;;;5035217;28;20044;-66
2022/09/13 00:58:03;;;;;;;22.08;15.63;;;17.50;99.90;;;;;;5042445;28;20116;-66
2022/09/13 01:00:29;;;;;;;22.42;15.48;;;17.50;99.90;;;;;;5035348;28;20040;-66
2022/09/13 01:03:00;;;;;;;21.25;15.02;;;17.40;99.90;;;;;;5052584;28;20298;-66
2022/09/13 01:05:32;;;;;;;20.65;15.20;;;17.40;99.90;;;;;;5043334;28;20064;-65
2022/09/13 01:07:59;;;;;;;22.60;16.55;;;17.40;99.90;;;;;;5045605;28;20037;-66
2022/09/13 01:10:26;;;;;;;27.92;17.67;;;17.40;99.90;;;;;;5052709;28;20049;-66
2022/09/13 01:13:00;;;;;;;24.50;16.42;;;17.40;99.90;;;;;;5034540;28;20076;-65
2022/09/13 01:15:26;;;;;;;22.83;16.38;;;17.40;99.90;;;;;;5028622;28;20033;-66
2022/09/13 01:17:53;;;;;;;21.17;14.48;;;17.40;99.90;;;;;;5028082;28;20047;-65
2022/09/13 01:20:24;;;;;;;21.05;14.40;;;17.40;99.90;;;;;;5052608;28;20087;-66
2022/09/13 01:23:27;;;;;;;21.42;14.85;;;17.40;99.90;;;;;;5028817;28;20078;-64
2022/09/13 01:25:59;;;;;;;20.20;14.68;;;17.40;99.90;;;;;;5043682;28;20049;-66
2022/09/13 01:28:54;;;;;;;21.65;14.70;;;17.40;99.90;;;;;;5052224;28;20450;-66
2022/09/13 01:31:23;;;;;;;23.52;14.82;;;17.40;99.90;;;;;;5036135;28;20458;-63
2022/09/13 01:34:11;;;;;;;19.60;14.93;;;17.40;99.90;;;;;;5039908;28;20404;-66
2022/09/13 01:36:56;;;;;;;20.42;14.57;;;17.30;99.90;;;;;;5052340;28;20522;-66
2022/09/13 01:39:43;;;;;;;19.42;14.50;;;17.30;99.90;;;;;;5036548;28;20063;-66
2022/09/13 01:42:27;;;;;;;19.45;14.60;;;17.20;99.90;;;;;;5035133;28;20041;-64
2022/09/13 01:45:15;;;;;;;20.60;14.27;;;17.20;99.90;;;;;;5051793;28;20045;-65
2022/09/13 01:48:10;;;;;;;18.92;14.20;;;17.20;99.90;;;;;;5027598;28;20077;-65
2022/09/13 01:51:07;;;;;;;18.88;14.35;;;17.20;99.90;;;;;;5041031;28;20083;-66
2022/09/13 01:53:33;;;;;;;25.30;16.08;;;17.20;99.90;;;;;;5034261;28;20072;-66
2022/09/13 01:56:38;;;;;;;22.80;16.25;;;17.20;99.90;;;;;;5033973;28;20412;-66
2022/09/13 01:59:17;;;;;;;22.33;16.50;;;17.20;99.90;;;;;;4976149;28;20190;-65
2022/09/13 02:01:49;;;;;;;24.23;16.85;;;17.10;99.90;;;;;;5051768;28;20116;-65
2022/09/13 02:04:22;;;;;;;23.77;17.25;;;17.10;99.90;;;;;;5035349;28;20049;-66
2022/09/13 02:07:13;;;;;;;26.50;17.83;;;17.10;99.90;;;;;;5050120;28;20521;-66
2022/09/13 02:09:42;;;;;;;29.75;18.35;;;17.20;99.90;;;;;;5052001;28;20467;-66
2022/09/13 02:12:20;;;;;;;24.15;17.52;;;17.20;99.90;;;;;;5042492;28;20080;-66
2022/09/13 02:14:57;;;;;;;29.40;19.17;;;17.20;99.90;;;;;;5039445;28;20057;-65
2022/09/13 02:17:27;;;;;;;26.27;18.52;;;17.20;99.90;;;;;;5034298;28;20041;-64
2022/09/13 02:20:04;;;;;;;27.65;18.15;;;17.20;99.90;;;;;;5051733;28;20044;-66
2022/09/13 02:22:36;;;;;;;28.65;19.05;;;17.20;99.90;;;;;;5018364;28;20048;-66
2022/09/13 02:25:17;;;;;;;;;;;17.10;99.90;;;;;;5043206;28;20087;-65
2022/09/13 02:27:48;;;;;;;29.55;19.52;;;17.10;99.90;;;;;;5051279;28;19927;-65
2022/09/13 02:30:14;;;;;;;33.07;21.13;;;17.10;99.90;;;;;;5030279;28;20647;-66
2022/09/13 02:33:09;;;;;;;35.63;22.52;;;17.00;99.90;;;;;;5044822;28;20063;-66
2022/09/13 02:35:39;;;;;;;35.63;22.08;;;17.00;99.90;;;;;;5033782;28;20049;-66
2022/09/13 02:38:22;;;;;;;32.07;21.73;;;17.00;99.90;;;;;;5021605;28;20064;-66
2022/09/13 02:40:55;;;;;;;30.98;20.98;;;17.10;99.90;;;;;;5040704;28;20094;-63
2022/09/13 02:43:46;;;;;;;33.90;22.25;;;17.10;99.90;;;;;;5033111;28;20503;-66
2022/09/13 02:46:28;;;;;;;36.08;23.08;;;17.10;99.90;;;;;;5034956;28;20042;-66
2022/09/13 02:49:12;;;;;;;31.75;23.08;;;17.10;99.90;;;;;;5050374;28;20033;-65
2022/09/13 02:51:56;;;;;;;36.50;24.38;;;17.20;99.90;;;;;;5033128;28;20059;-65
2022/09/13 02:54:48;;;;;;;33.20;23.23;;;17.20;99.90;;;;;;5041407;28;20071;-65
2022/09/13 02:57:25;;;;;;;36.33;24.00;;;17.20;99.90;;;;;;5045904;28;20044;-66
2022/09/13 02:59:51;;;;;;;33.28;23.65;;;17.20;99.90;;;;;;5051077;28;20120;-65
2022/09/13 03:02:20;;;;;;;38.10;25.20;;;17.20;99.90;;;;;;5038344;28;20120;-64
2022/09/13 03:04:49;;;;;;;36.08;24.30;;;17.20;99.90;;;;;;5039031;28;20037;-66
2022/09/13 03:07:15;;;;;;;38.08;24.38;;;17.20;99.90;;;;;;5050258;28;20041;-65
2022/09/13 03:09:48;;;;;;;39.70;25.35;;;17.20;99.90;;;;;;5050615;28;20499;-66
2022/09/13 03:12:31;;;;;;;35.63;24.88;;;17.20;99.90;;;;;;5028007;28;20510;-66
2022/09/13 03:15:00;;;;;;;44.40;25.65;;;17.20;99.90;;;;;;5046638;28;20719;-65
2022/09/13 03:17:40;;;;;;;41.13;26.08;;;17.20;99.90;;;;;;5050620;28;20116;-66
2022/09/13 03:20:36;;;;;;;43.90;27.08;;;17.20;99.90;;;;;;5031610;28;20037;-66
2022/09/13 03:23:28;;;;;;;43.25;26.83;;;17.20;99.90;;;;;;4998549;28;20535;-65
2022/09/13 03:26:15;;;;;;;42.30;27.13;;;17.20;99.90;;;;;;5050189;28;20116;-65
2022/09/13 03:29:01;;;;;;;35.65;24.95;;;17.20;99.90;;;;;;5035764;28;20040;-66
2022/09/13 03:31:50;;;;;;;40.80;25.73;;;17.30;99.90;;;;;;5027343;28;20052;-66
2022/09/13 03:34:32;;;;;;;43.55;25.98;;;17.20;99.90;;;;;;5045322;28;20431;-65
2022/09/13 03:37:13;;;;;;;38.15;26.77;;;17.20;99.90;;;;;;5030680;28;20056;-66
2022/09/13 03:39:44;;;;;;;37.75;25.90;;;17.30;99.90;;;;;;5037665;28;20049;-66
2022/09/13 03:42:18;;;;;;;41.47;25.60;;;17.30;99.90;;;;;;5050234;28;20049;-66
2022/09/13 03:44:47;;;;;;;39.65;25.23;;;17.30;99.90;;;;;;5034487;28;20414;-64
2022/09/13 03:47:15;;;;;;;41.00;25.00;;;17.30;99.90;;;;;;5042283;28;20041;-66
2022/09/13 03:49:40;;;;;;;38.28;24.92;;;17.30;99.90;;;;;;5050166;28;20483;-65
2022/09/13 03:52:07;;;;;;;37.90;25.42;;;17.30;99.90;;;;;;5040585;28;20042;-66
2022/09/13 03:54:36;;;;;;;43.40;26.80;;;17.30;99.90;;;;;;5035708;28;20112;-66
2022/09/13 03:57:16;;;;;;;39.40;25.45;;;17.30;99.90;;;;;;5048422;28;20041;-63
2022/09/13 03:59:56;;;;;;;42.03;27.00;;;17.30;99.90;;;;;;5028857;28;20103;-66
2022/09/13 04:02:23;;;;;;;46.08;27.88;;;17.30;99.90;;;;;;5048973;28;20138;-66
2022/09/13 04:04:50;;;;;;;44.33;27.92;;;17.30;99.90;;;;;;5050173;28;20041;-65
2022/09/13 04:07:18;;;;;;;43.45;28.23;;;17.30;99.90;;;;;;5035283;28;20480;-66
2022/09/13 04:09:44;;;;;;;47.05;27.52;;;17.30;99.90;;;;;;5034397;28;20045;-66
2022/09/13 04:12:10;;;;;;;43.67;27.52;;;17.30;99.90;;;;;;5039094;28;20037;-66
2022/09/13 04:14:36;;;;;;;42.83;27.48;;;17.30;99.90;;;;;;5053819;28;20083;-66
2022/09/13 04:17:02;;;;;;;42.35;26.75;;;17.30;99.90;;;;;;5036370;28;20034;-65
2022/09/13 04:19:28;;;;;;;41.53;26.88;;;17.30;99.90;;;;;;5050332;28;20029;-66
2022/09/13 04:21:54;;;;;;;43.30;27.40;;;17.30;99.90;;;;;;5053368;28;20069;-66
2022/09/13 04:24:25;;;;;;;42.22;26.75;;;17.30;99.90;;;;;;5046123;28;20042;-66
2022/09/13 04:26:52;;;;;;;42.22;26.90;;;17.30;99.90;;;;;;5037801;28;20041;-65
2022/09/13 04:29:18;;;;;;;42.38;26.83;;;17.30;99.90;;;;;;5052716;28;20499;-66
2022/09/13 04:31:48;;;;;;;42.15;26.90;;;17.30;99.90;;;;;;5053222;28;20033;-66
2022/09/13 04:34:14;;;;;;;41.70;27.50;;;17.30;99.90;;;;;;5030880;28;20048;-65
2022/09/13 04:36:40;;;;;;;39.90;26.73;;;17.30;99.90;;;;;;5040614;28;20543;-66
2022/09/13 04:39:06;;;;;;;40.08;27.00;;;17.30;99.90;;;;;;5053203;28;20037;-65
2022/09/13 04:41:33;;;;;;;45.42;26.83;;;17.30;99.90;;;;;;5051320;28;20052;-63
2022/09/13 04:44:02;;;;;;;41.60;26.77;;;17.30;99.90;;;;;;5027301;28;20590;-66
2022/09/13 04:46:28;;;;;;;44.00;27.73;;;17.30;99.90;;;;;;5044409;28;20037;-64
2022/09/13 04:48:54;;;;;;;42.97;27.00;;;17.30;99.90;;;;;;5018404;28;20090;-65
2022/09/13 04:51:20;;;;;;;45.58;27.92;;;17.30;99.90;;;;;;5023733;28;20061;-66
2022/09/13 04:53:52;;;;;;;46.35;27.95;;;17.30;99.90;;;;;;5024166;28;20365;-65
2022/09/13 04:56:18;;;;;;;;;;;17.30;99.90;;;;;;5051909;28;20067;-66
2022/09/13 04:58:44;;;;;;;42.35;27.98;;;17.30;99.90;;;;;;5026580;28;20344;-65
2022/09/13 05:01:10;;;;;;;44.35;28.10;;;17.30;99.90;;;;;;5029515;28;20049;-64
2022/09/13 05:03:37;;;;;;;49.92;28.35;;;17.30;99.90;;;;;;5049940;28;20029;-64
2022/09/13 05:06:07;;;;;;;45.10;26.90;;;17.30;99.90;;;;;;5048197;28;20043;-61
2022/09/13 05:08:34;;;;;;;46.58;27.38;;;17.30;99.90;;;;;;5024235;28;20640;-65
2022/09/13 05:11:00;;;;;;;44.05;27.63;;;17.30;99.90;;;;;;5034418;28;20041;-66
2022/09/13 05:13:27;;;;;;;43.60;28.15;;;17.30;99.90;;;;;;5049933;28;20526;-65
2022/09/13 05:15:56;;;;;;;44.92;28.75;;;17.30;99.90;;;;;;5036441;28;20053;-63
2022/09/13 05:18:25;;;;;;;43.75;27.45;;;17.40;99.90;;;;;;5047220;28;20033;-66
2022/09/13 05:20:54;;;;;;;46.35;28.17;;;17.40;99.90;;;;;;5049169;28;20076;-64
2022/09/13 05:23:20;;;;;;;48.25;29.13;;;17.40;99.90;;;;;;5043599;28;20076;-64
2022/09/13 05:25:51;;;;;;;47.97;28.67;;;17.40;99.90;;;;;;5013691;28;20085;-64
2022/09/13 05:28:17;;;;;;;50.92;28.92;;;17.50;99.90;;;;;;5048369;28;20051;-66
2022/09/13 05:30:42;;;;;;;49.20;27.80;;;17.50;99.90;;;;;;5051207;28;20037;-66
2022/09/13 05:33:08;;;;;;;49.40;29.83;;;17.50;99.90;;;;;;5030914;28;20649;-65
2022/09/13 05:35:34;;;;;;;44.88;27.42;;;17.50;99.90;;;;;;5045465;28;20050;-65
2022/09/13 05:37:59;;;;;;;45.40;28.17;;;17.50;99.90;;;;;;5052384;28;20037;-65
2022/09/13 05:40:25;;;;;;;44.80;28.10;;;17.60;99.90;;;;;;5038626;28;20033;-63
2022/09/13 05:42:52;;;;;;;45.78;28.27;;;17.60;99.90;;;;;;5018354;28;20038;-65
2022/09/13 05:45:17;;;;;;;45.85;28.33;;;17.60;99.90;;;;;;5036599;28;20029;-64
2022/09/13 05:47:44;;;;;;;46.10;27.80;;;17.60;99.90;;;;;;5051887;28;20565;-65
2022/09/13 05:50:10;;;;;;;42.67;27.95;;;17.60;99.90;;;;;;5026892;28;20116;-65
2022/09/13 05:52:35;;;;;;;48.08;27.85;;;17.60;99.90;;;;;;5020111;28;20739;-65
2022/09/13 05:55:01;;;;;;;45.20;27.70;;;17.60;99.90;;;;;;5048935;28;20120;-65
2022/09/13 05:57:27;;;;;;;42.13;27.00;;;17.70;99.90;;;;;;5046180;28;20115;-64
2022/09/13 05:59:52;;;;;;;44.78;26.65;;;17.70;99.90;;;;;;5023126;28;20046;-65
2022/09/13 06:02:18;;;;;;;45.28;26.70;;;17.80;99.90;;;;;;5046351;28;20075;-66
2022/09/13 06:04:44;;;;;;;42.70;26.50;;;17.80;99.90;;;;;;5048841;28;20127;-65
2022/09/13 06:07:11;;;;;;;42.53;26.35;;;17.80;99.90;;;;;;5036702;28;20040;-65
2022/09/13 06:09:36;;;;;;;45.75;26.60;;;17.80;99.90;;;;;;5044918;28;20068;-65
2022/09/13 06:12:02;;;;;;;43.58;27.45;;;17.90;99.90;;;;;;5031160;28;20523;-65
2022/09/13 06:14:28;;;;;;;39.67;26.15;;;17.90;99.90;;;;;;5008498;28;20099;-66
2022/09/13 06:16:53;;;;;;;40.67;25.42;;;17.90;99.90;;;;;;5031114;28;20459;-66
2022/09/13 06:19:19;;;;;;;38.42;23.27;;;17.90;99.90;;;;;;5047406;28;20072;-66
2022/09/13 06:21:45;;;;;;;38.95;23.13;;;18.00;99.90;;;;;;5028609;28;20623;-66
2022/09/13 06:24:10;;;;;;;37.90;23.48;;;18.00;99.90;;;;;;5037066;28;20041;-65
2022/09/13 06:26:36;;;;;;;34.03;22.15;;;18.10;99.90;;;;;;5039007;28;20042;-66
2022/09/13 06:29:01;;;;;;;33.25;19.60;;;18.10;99.90;;;;;;5051215;28;20033;-66
2022/09/13 06:31:27;;;;;;;29.38;19.23;;;18.10;99.90;;;;;;5029966;28;20041;-65
2022/09/13 06:33:59;;;;;;;25.80;17.52;;;18.10;99.90;;;;;;5034705;28;20060;-66
2022/09/13 06:36:24;;;;;;;25.15;17.23;;;18.20;99.90;;;;;;5031251;28;20041;-65
2022/09/13 06:38:50;;;;;;;25.50;16.00;;;18.20;99.90;;;;;;5016361;28;20041;-65
2022/09/13 06:41:18;;;;;;;24.15;15.68;;;18.20;99.90;;;;;;5016854;28;20124;-65
2022/09/13 06:43:44;;;;;;;23.45;14.98;;;18.20;99.90;;;;;;5037771;28;20483;-66
2022/09/13 06:46:15;;;;;;;22.08;13.88;;;18.20;99.90;;;;;;5032505;28;20042;-66
2022/09/13 06:48:42;;;;;;;20.58;14.38;;;18.20;99.90;;;;;;5021252;28;20025;-65
2022/09/13 06:51:17;;;;;;;21.20;13.40;;;18.20;99.90;;;;;;5044663;28;20121;-66
2022/09/13 06:53:45;;;;;;;16.65;11.52;;;18.30;99.90;;;;;;5032541;28;20262;-66
2022/09/13 06:56:15;;;;;;;15.63;9.48;;;18.30;99.90;;;;;;5029932;28;20037;-65
2022/09/13 06:58:42;;;;;;;14.63;7.88;;;18.30;99.90;;;;;;5031747;28;20072;-66
2022/09/13 07:01:11;;;;;;;11.20;6.90;;;18.30;99.90;;;;;;5032463;28;20261;-66
2022/09/13 07:04:02;;;;;;;9.88;6.13;;;18.20;99.90;;;;;;5050653;28;20064;-67
2022/09/13 07:06:30;;;;;;;9.57;5.03;;;18.20;99.90;;;;;;5016106;28;20048;-66
2022/09/13 07:08:57;;;;;;;11.93;4.63;;;18.20;99.90;;;;;;5034417;28;20034;-70
2022/09/13 07:11:25;;;;;;;5.10;4.10;;;18.10;99.90;;;;;;5030004;28;20041;-65
2022/09/13 07:13:56;;;;;;;5.78;3.58;;;18.10;99.90;;;;;;5019361;28;20045;-66
2022/09/13 07:16:24;;;;;;;10.02;4.28;;;18.00;99.90;;;;;;5049225;28;20055;-66
2022/09/13 07:18:51;;;;;;;11.10;4.90;;;18.00;99.90;;;;;;5050666;28;20087;-66
2022/09/13 07:21:17;;;;;;;8.02;5.72;;;17.90;99.90;;;;;;5045148;28;20044;-65
2022/09/13 07:23:43;;;;;;;9.48;6.13;;;17.90;99.90;;;;;;5025846;28;20090;-65
2022/09/13 07:26:09;;;;;;;9.93;5.65;;;17.80;99.90;;;;;;5035736;28;20099;-67
2022/09/13 07:28:43;;;;;;;6.93;4.63;;;17.80;99.90;;;;;;5040365;28;20459;-66
2022/09/13 07:31:13;;;;;;;8.30;5.00;;;17.80;99.90;;;;;;5034728;28;20034;-67
2022/09/13 07:33:40;;;;;;;6.97;5.10;;;17.80;99.90;;;;;;5045072;28;20040;-65
2022/09/13 07:36:07;;;;;;;7.57;5.25;;;17.90;99.90;;;;;;5026988;28;20152;-65
2022/09/13 07:38:35;;;;;;;9.48;5.30;;;17.90;99.90;;;;;;5022111;28;20036;-66
2022/09/13 07:41:05;;;;;;;11.10;5.53;;;17.90;99.90;;;;;;5040999;28;20042;-66
2022/09/13 07:43:34;;;;;;;7.28;5.38;;;17.90;99.90;;;;;;5033822;28;20049;-66
2022/09/13 07:46:05;;;;;;;10.45;5.57;;;17.90;99.90;;;;;;5024525;28;20042;-65
2022/09/13 07:48:33;;;;;;;12.45;5.63;;;17.90;99.90;;;;;;5016720;28;20407;-65
2022/09/13 07:51:07;;;;;;;9.10;5.63;;;18.00;99.90;;;;;;5034073;28;20037;-65
2022/09/13 07:53:35;;;;;;;11.00;5.00;;;18.20;99.90;;;;;;5034491;28;20045;-64
2022/09/13 07:56:06;;;;;;;11.25;5.00;;;18.30;99.90;;;;;;5026174;28;20057;-64
2022/09/13 07:58:32;;;;;;;;;;;18.40;99.90;;;;;;5035290;28;20064;-64
2022/09/13 08:01:09;;;;;;;7.80;4.30;;;18.50;99.90;;;;;;5033575;28;19931;-65
2022/09/13 08:03:35;;;;;;;8.65;4.22;;;18.60;99.90;;;;;;5025728;28;20483;-64
2022/09/13 08:06:02;;;;;;;8.75;4.25;;;18.70;99.90;;;;;;5035739;28;20048;-65
2022/09/13 08:08:29;;;;;;;10.80;4.00;;;18.80;99.90;;;;;;5033901;28;20101;-64
2022/09/13 08:10:55;;;;;;;9.30;3.80;;;18.90;99.90;;;;;;5049195;28;20155;-63
2022/09/13 08:13:21;;;;;;;6.45;4.03;;;18.90;99.90;;;;;;5034531;28;20120;-63
2022/09/13 08:15:48;;;;;;;6.88;4.00;;;19.00;99.90;;;;;;5031545;28;20048;-64
2022/09/13 08:18:14;;;;;;;10.48;3.97;;;19.00;99.90;;;;;;5032564;28;20049;-63
2022/09/13 08:20:40;;;;;;;12.25;3.97;;;19.10;99.90;;;;;;5018703;28;20488;-66
2022/09/13 08:23:07;;;;;;;7.78;3.95;;;19.10;99.90;;;;;;5050325;28;20037;-63
2022/09/13 08:25:34;;;;;;;8.93;3.70;;;19.10;99.90;;;;;;5044195;28;20041;-63
2022/09/13 08:28:07;;;;;;;9.95;3.83;;;19.20;99.90;;;;;;5025590;28;20053;-62
2022/09/13 08:30:35;;;;;;;5.93;3.30;;;19.30;99.90;;;;;;5038414;28;20543;-63
2022/09/13 08:33:02;;;;;;;10.23;3.47;;;19.30;99.90;;;;;;5053628;28;20037;-62
2022/09/13 08:35:28;;;;;;;12.45;2.58;;;19.40;99.90;;;;;;5041804;28;20693;-63
2022/09/13 08:37:55;;;;;;;9.55;2.40;;;19.40;99.90;;;;;;5044004;28;20593;-63
2022/09/13 08:40:23;;;;;;;10.15;2.60;;;19.50;99.90;;;;;;5053107;28;20036;-63
2022/09/13 08:42:57;;;;;;;4.78;1.83;;;19.40;99.90;;;;;;5053038;28;20040;-62
2022/09/13 08:45:23;;;;;;;3.25;1.80;;;19.50;99.90;;;;;;5026131;28;20059;-63
2022/09/13 08:47:55;;;;;;;5.50;2.08;;;19.50;99.90;;;;;;5024952;28;20566;-63
2022/09/13 08:50:33;;;;;;;5.65;1.95;;;19.50;99.90;;;;;;5035348;28;20083;-64
2022/09/13 08:53:10;;;;;;;7.22;2.25;;;19.50;99.90;;;;;;5029796;28;20049;-64
2022/09/13 08:55:53;;;;;;;5.47;2.00;;;19.50;99.90;;;;;;5045501;28;20056;-62
2022/09/13 08:58:34;;;;;;;8.00;2.30;;;19.50;99.90;;;;;;5052922;28;20574;-65
2022/09/13 09:01:11;;;;;;;4.32;1.83;;;19.60;99.90;;;;;;5043907;28;20029;-64
2022/09/13 09:03:52;;;;;;;7.82;2.30;;;19.70;99.90;;;;;;5032061;28;20037;-62
2022/09/13 09:06:21;;;;;;;6.72;2.00;;;19.80;99.90;;;;;;5044597;28;20041;-63
2022/09/13 09:08:52;;;;;;;5.40;2.42;;;20.00;99.90;;;;;;5043306;28;20049;-62
2022/09/13 09:11:30;;;;;;;4.95;1.80;;;20.20;99.90;;;;;;5031313;28;20111;-62
2022/09/13 09:14:06;;;;;;;4.78;2.28;;;20.20;99.90;;;;;;5044185;28;20032;-62
2022/09/13 09:16:38;;;;;;;5.47;2.03;;;20.20;99.90;;;;;;5052917;28;20055;-63
2022/09/13 09:19:13;;;;;;;7.13;2.00;;;20.20;99.90;;;;;;5031018;28;20049;-63
2022/09/13 09:21:40;;;;;;;8.48;2.15;;;20.10;99.90;;;;;;5042703;28;20033;-63
2022/09/13 09:24:06;;;;;;;4.93;2.08;;;20.10;99.90;;;;;;5035442;28;20061;-64
2022/09/13 09:26:32;;;;;;;7.22;2.00;;;20.10;99.90;;;;;;5026969;28;20056;-63
2022/09/13 09:29:20;;;;;;;5.80;2.00;;;20.00;99.90;;;;;;5043770;28;20562;-63
2022/09/13 09:32:08;;;;;;;5.47;2.15;;;20.10;99.90;;;;;;5032350;28;20033;-64
2022/09/13 09:34:47;;;;;;;4.50;2.20;;;20.10;99.90;;;;;;5031568;28;20049;-62
2022/09/13 09:37:23;;;;;;;5.53;2.42;;;20.10;99.90;;;;;;5033666;28;20137;-63
2022/09/13 09:39:54;;;;;;;6.18;2.47;;;20.10;99.90;;;;;;5044127;28;20084;-63
2022/09/13 09:42:24;;;;;;;4.25;1.70;;;20.30;99.90;;;;;;5039168;28;20102;-63
2022/09/13 09:44:59;;;;;;;4.93;1.80;;;20.30;99.90;;;;;;5039337;28;20044;-62
2022/09/13 09:47:43;;;;;;;3.80;1.60;;;20.30;99.90;;;;;;5031714;28;20559;-63
2022/09/13 09:50:26;;;;;;;4.25;1.92;;;20.40;99.90;;;;;;5030145;28;20037;-63
2022/09/13 09:53:15;;;;;;;4.30;1.88;;;20.40;99.90;;;;;;5019986;28;20063;-63
2022/09/13 09:55:50;;;;;;;9.18;2.00;;;20.50;99.90;;;;;;5031109;28;20035;-63
2022/09/13 09:58:17;;;;;;;3.90;1.80;;;20.70;99.90;;;;;;5049301;28;20051;-63
2022/09/13 10:00:55;;;;;;;2.85;1.70;;;20.70;99.90;;;;;;5014087;28;20492;-65
2022/09/13 10:03:39;;;;;;;3.10;1.52;;;20.60;99.90;;;;;;5039810;28;20059;-63
2022/09/13 10:06:17;;;;;;;3.95;1.50;;;20.40;99.90;;;;;;5031544;28;20516;-65
2022/09/13 10:08:54;;;;;;;4.90;1.70;;;20.40;99.90;;;;;;5023656;28;20049;-64
2022/09/13 10:11:21;;;;;;;4.43;1.50;;;20.30;99.90;;;;;;5031977;28;20038;-66
2022/09/13 10:14:01;;;;;;;3.75;1.60;;;20.40;99.90;;;;;;5020968;28;20037;-65
2022/09/13 10:16:29;;;;;;;2.20;1.40;;;20.50;99.90;;;;;;5015861;28;20138;-65
2022/09/13 10:19:24;;;;;;;3.33;1.40;;;20.60;99.90;;;;;;5041112;28;20121;-65
2022/09/13 10:22:04;;;;;;;4.60;1.50;;;20.90;99.90;;;;;;5029631;28;20042;-65
2022/09/13 10:24:31;;;;;;;4.78;1.30;;;21.10;99.90;;;;;;5030312;28;20088;-65
2022/09/13 10:26:58;;;;;;;2.80;1.40;;;21.00;99.90;;;;;;5030309;28;20411;-65
2022/09/13 10:29:26;;;;;;;4.05;1.50;;;20.60;99.90;;;;;;5043026;28;20632;-65
2022/09/13 10:31:52;;;;;;;3.75;1.42;;;20.40;99.90;;;;;;5027116;28;20034;-64
2022/09/13 10:34:34;;;;;;;7.32;1.55;;;20.30;99.90;;;;;;5026976;28;20042;-65
2022/09/13 10:37:04;;;;;;;5.43;1.10;;;20.20;99.90;;;;;;5050166;28;20090;-65
2022/09/13 10:39:34;;;;;;;6.53;1.60;;;20.30;99.90;;;;;;5026904;28;20033;-64
2022/09/13 10:42:04;;;;;;;5.25;1.30;;;20.50;99.90;;;;;;5042862;28;20041;-63
2022/09/13 10:44:35;;;;;;;3.10;1.20;;;20.70;99.90;;;;;;5050956;28;20033;-64
2022/09/13 10:47:05;;;;;;;2.03;1.10;;;20.90;99.90;;;;;;5051224;28;20072;-65
2022/09/13 10:49:49;;;;;;;5.72;1.30;;;21.10;99.90;;;;;;5033039;28;20028;-65
2022/09/13 10:52:35;;;;;;;4.93;1.30;;;21.20;99.90;;;;;;5042870;28;20047;-65
2022/09/13 10:55:18;;;;;;;4.57;1.35;;;21.30;99.90;;;;;;5050750;28;20045;-64
2022/09/13 10:58:12;;;;;;;4.18;1.20;;;21.40;99.90;;;;;;5029193;28;20622;-65
2022/09/13 11:01:09;;;;;;;5.90;1.25;;;21.20;99.90;;;;;;5037012;28;20068;-64
2022/09/13 11:04:00;;;;;;;1.42;1.00;;;21.10;99.90;;;;;;5051030;28;20091;-65
2022/09/13 11:06:41;;;;;;;1.63;1.10;;;21.10;99.90;;;;;;5037334;28;20088;-64
2022/09/13 11:09:22;;;;;;;3.33;1.45;;;21.20;99.90;;;;;;5017544;28;20022;-63
2022/09/13 11:12:17;;;;;;;3.70;1.10;;;21.50;99.90;;;;;;5033849;28;20120;-64
2022/09/13 11:15:11;;;;;;;10.80;1.50;;;21.50;99.90;;;;;;5032378;28;20041;-64
2022/09/13 11:17:36;;;;;;;3.17;1.13;;;21.60;99.90;;;;;;5045760;28;20056;-64
2022/09/13 11:20:12;;;;;;;2.88;1.33;;;21.60;99.90;;;;;;5035636;28;20037;-64
2022/09/13 11:22:43;;;;;;;2.55;1.00;;;21.50;99.90;;;;;;5032494;28;20067;-65
2022/09/13 11:25:30;;;;;;;3.70;1.20;;;21.30;99.90;;;;;;5042517;28;20076;-63
2022/09/13 11:27:58;;;;;;;3.13;1.30;;;21.40;99.90;;;;;;5049893;28;20055;-64
2022/09/13 11:30:26;;;;;;;4.22;1.20;;;21.40;99.90;;;;;;5014620;28;20506;-64
2022/09/13 11:33:07;;;;;;;2.45;1.20;;;21.50;99.90;;;;;;5046194;28;20056;-64
2022/09/13 11:36:07;;;;;;;4.13;1.33;;;21.60;99.90;;;;;;5034310;28;20033;-64
2022/09/13 11:38:49;;;;;;;4.53;1.42;;;21.60;99.90;;;;;;5028368;28;20169;-65
2022/09/13 11:41:29;;;;;;;6.53;1.40;;;21.70;99.90;;;;;;5033990;28;20026;-64
2022/09/13 11:44:21;;;;;;;3.33;1.40;;;21.80;99.90;;;;;;5049223;28;20052;-65
2022/09/13 11:46:50;;;;;;;;;;;21.90;99.90;;;;;;5041254;28;20174;-64
2022/09/13 11:49:54;;;;;;;4.00;0.90;;;21.90;99.80;;;;;;5031084;28;19917;-64
2022/09/13 11:53:08;;;;;;;4.13;1.02;;;21.80;99.70;;;;;;5048341;28;20650;-64
2022/09/13 11:55:52;;;;;;;3.58;1.27;;;21.60;99.50;;;;;;4982867;28;20087;-62
2022/09/13 11:58:23;;;;;;;2.67;1.23;;;21.40;99.90;;;;;;5047150;28;20044;-64
2022/09/13 12:01:00;;;;;;;4.47;1.20;;;21.20;99.90;;;;;;5034439;28;20464;-63
2022/09/13 12:04:04;;;;;;;5.50;1.50;;;21.40;99.90;;;;;;5030334;28;20061;-64
2022/09/13 12:06:36;;;;;;;7.68;1.50;;;21.40;99.80;;;;;;5031633;28;20041;-63
2022/09/13 12:09:28;;;;;;;2.67;1.20;;;21.60;99.90;;;;;;5030423;28;20146;-65
2022/09/13 12:12:12;;;;;;;3.63;1.20;;;21.80;99.80;;;;;;5028757;28;22442;-64
2022/09/13 12:14:49;;;;;;;5.25;1.40;;;21.90;99.40;;;;;;5032238;28;20040;-64
2022/09/13 12:17:42;;;;;;;2.90;1.20;;;22.00;99.60;;;;;;5038427;28;20034;-64
2022/09/13 12:20:34;;;;;;;5.07;1.20;;;22.20;99.90;;;;;;5027887;28;20134;-64
2022/09/13 12:23:02;;;;;;;3.10;1.00;;;22.30;99.80;;;;;;5020400;28;20057;-64
2022/09/13 12:25:54;;;;;;;4.20;1.00;;;22.10;99.90;;;;;;5039277;28;20044;-64
2022/09/13 12:28:39;;;;;;;3.67;1.27;;;21.80;98.80;;;;;;5041019;28;20407;-64
2022/09/13 12:31:22;;;;;;;7.32;1.40;;;21.70;99.20;;;;;;5021630;28;20038;-64
2022/09/13 12:33:48;;;;;;;2.13;1.00;;;21.80;98.70;;;;;;5038622;28;20105;-64
2022/09/13 12:36:31;;;;;;;3.92;1.20;;;21.90;99.20;;;;;;5022009;28;20080;-62
2022/09/13 12:39:26;;;;;;;2.67;1.15;;;22.00;99.00;;;;;;5044496;28;20041;-63
2022/09/13 12:42:00;;;;;;;2.88;1.02;;;22.10;98.20;;;;;;5050782;28;20106;-64
2022/09/13 12:44:48;;;;;;;3.30;0.95;;;22.40;99.40;;;;;;5016176;28;20040;-64
2022/09/13 12:47:28;;;;;;;3.80;1.00;;;22.60;98.10;;;;;;5032586;28;20140;-63
2022/09/13 12:50:18;;;;;;;6.43;1.20;;;22.60;98.40;;;;;;5036917;28;20091;-63
2022/09/13 12:53:18;;;;;;;4.88;1.10;;;22.50;96.20;;;;;;5033074;28;20037;-63
2022/09/13 12:55:55;;;;;;;5.88;1.38;;;22.30;97.20;;;;;;5027869;28;20041;-62
2022/09/13 12:59:04;;;;;;;6.18;1.60;;;22.20;96.50;;;;;;5035224;28;20046;-62
2022/09/13 13:01:31;;;;;;;6.43;1.15;;;22.20;97.00;;;;;;5052064;28;20051;-62
2022/09/13 13:04:11;;;;;;;2.42;0.95;;;22.10;97.90;;;;;;5028123;28;20033;-65
2022/09/13 13:06:47;;;;;;;8.52;1.45;;;22.20;96.60;;;;;;5038723;28;20045;-63
2022/09/13 13:09:43;;;;;;;3.40;0.80;;;22.30;96.10;;;;;;5034811;28;20033;-63